Terminal Aerodrome Forecast
Issued by NWS

Home | Current Version | Previous Version | Text Only | Print | Product List | Glossary On
Versions: 1 2 3 4 5 6 7 8 9 10 11 12 13
000
FTPQ31 PGUM 261256 AAA
TAFTKK
TAF AMD
PTKK 261256Z 2613/2712 12011KT P6SM VCSH FEW016 SCT040 BKN120
      TEMPO 2613/2617 5SM SHRA SCT014 BKN025=

USA.gov is the U.S. government's official web portal to all federal, state and local government web resources and services.